sensor_id;sensor_type;location;lat;lon;timestamp;P1;durP1;ratioP1;P2;durP2;ratioP2
26838;SDS011;40088;51.214;6.786;2023-07-31T00:06:23;5.40;;;3.35;;
26838;SDS011;40088;51.214;6.786;2023-07-31T00:16:24;9.65;;;4.03;;
26838;SDS011;40088;51.214;6.786;2023-07-31T00:26:24;7.57;;;3.78;;
26838;SDS011;40088;51.214;6.786;2023-07-31T00:36:24;10.52;;;5.80;;
26838;SDS011;40088;51.214;6.786;2023-07-31T00:46:24;6.93;;;4.70;;
26838;SDS011;40088;51.214;6.786;2023-07-31T00:56:25;9.18;;;3.60;;
26838;SDS011;40088;51.214;6.786;2023-07-31T01:06:33;6.67;;;3.60;;
26838;SDS011;40088;51.214;6.786;2023-07-31T01:16:53;7.47;;;4.63;;
26838;SDS011;40088;51.214;6.786;2023-07-31T01:26:58;10.75;;;5.82;;
26838;SDS011;40088;51.214;6.786;2023-07-31T01:37:06;7.95;;;4.65;;
26838;SDS011;40088;51.214;6.786;2023-07-31T01:47:06;10.45;;;4.18;;
26838;SDS011;40088;51.214;6.786;2023-07-31T01:57:06;9.20;;;4.75;;
26838;SDS011;40088;51.214;6.786;2023-07-31T02:07:07;12.68;;;5.65;;
26838;SDS011;40088;51.214;6.786;2023-07-31T02:17:07;11.88;;;4.47;;
26838;SDS011;40088;51.214;6.786;2023-07-31T02:27:07;9.25;;;4.38;;
26838;SDS011;40088;51.214;6.786;2023-07-31T02:37:07;25.92;;;9.60;;
26838;SDS011;40088;51.214;6.786;2023-07-31T02:47:08;10.05;;;4.93;;
26838;SDS011;40088;51.214;6.786;2023-07-31T02:57:08;9.60;;;5.13;;
26838;SDS011;40088;51.214;6.786;2023-07-31T03:07:09;10.63;;;4.85;;
26838;SDS011;40088;51.214;6.786;2023-07-31T03:17:09;9.20;;;4.97;;
26838;SDS011;40088;51.214;6.786;2023-07-31T03:27:09;9.38;;;4.85;;
26838;SDS011;40088;51.214;6.786;2023-07-31T03:37:09;10.80;;;4.78;;
26838;SDS011;40088;51.214;6.786;2023-07-31T03:47:10;8.30;;;4.30;;
26838;SDS011;40088;51.214;6.786;2023-07-31T03:57:10;9.35;;;4.38;;
26838;SDS011;40088;51.214;6.786;2023-07-31T04:07:11;9.02;;;4.32;;
26838;SDS011;40088;51.214;6.786;2023-07-31T04:17:11;8.00;;;5.00;;
26838;SDS011;40088;51.214;6.786;2023-07-31T04:27:12;13.48;;;7.22;;
26838;SDS011;40088;51.214;6.786;2023-07-31T04:37:12;10.85;;;5.72;;
26838;SDS011;40088;51.214;6.786;2023-07-31T04:47:12;13.90;;;5.97;;
26838;SDS011;40088;51.214;6.786;2023-07-31T04:57:13;10.05;;;5.50;;
26838;SDS011;40088;51.214;6.786;2023-07-31T05:07:14;14.63;;;7.70;;
26838;SDS011;40088;51.214;6.786;2023-07-31T05:17:14;9.05;;;5.10;;
26838;SDS011;40088;51.214;6.786;2023-07-31T05:27:14;9.23;;;5.43;;
26838;SDS011;40088;51.214;6.786;2023-07-31T05:37:18;7.35;;;4.78;;
26838;SDS011;40088;51.214;6.786;2023-07-31T05:47:19;6.82;;;4.75;;
26838;SDS011;40088;51.214;6.786;2023-07-31T05:57:19;12.27;;;5.13;;
26838;SDS011;40088;51.214;6.786;2023-07-31T06:07:20;8.67;;;5.10;;
26838;SDS011;40088;51.214;6.786;2023-07-31T06:17:20;8.48;;;4.90;;
26838;SDS011;40088;51.214;6.786;2023-07-31T06:27:21;9.57;;;6.28;;
26838;SDS011;40088;51.214;6.786;2023-07-31T06:37:21;8.23;;;5.30;;
26838;SDS011;40088;51.214;6.786;2023-07-31T06:47:22;10.60;;;6.45;;
26838;SDS011;40088;51.214;6.786;2023-07-31T06:57:22;7.93;;;5.22;;
26838;SDS011;40088;51.214;6.786;2023-07-31T07:07:22;9.93;;;5.78;;
26838;SDS011;40088;51.214;6.786;2023-07-31T07:17:23;10.10;;;5.75;;
26838;SDS011;40088;51.214;6.786;2023-07-31T07:27:23;9.73;;;5.97;;
26838;SDS011;40088;51.214;6.786;2023-07-31T07:37:24;12.40;;;6.22;;
26838;SDS011;40088;51.214;6.786;2023-07-31T07:47:24;7.13;;;5.10;;
26838;SDS011;40088;51.214;6.786;2023-07-31T07:57:24;7.22;;;4.82;;
26838;SDS011;40088;51.214;6.786;2023-07-31T08:07:24;12.02;;;5.88;;
26838;SDS011;40088;51.214;6.786;2023-07-31T08:17:25;6.10;;;4.20;;
26838;SDS011;40088;51.214;6.786;2023-07-31T08:27:25;9.82;;;5.85;;
26838;SDS011;40088;51.214;6.786;2023-07-31T08:37:26;7.72;;;4.85;;
26838;SDS011;40088;51.214;6.786;2023-07-31T08:47:26;5.90;;;4.20;;
26838;SDS011;40088;51.214;6.786;2023-07-31T08:57:28;6.65;;;4.95;;
26838;SDS011;40088;51.214;6.786;2023-07-31T09:07:29;4.75;;;4.07;;
26838;SDS011;40088;51.214;6.786;2023-07-31T09:17:35;8.80;;;4.50;;
26838;SDS011;40088;51.214;6.786;2023-07-31T09:27:46;6.65;;;4.40;;
26838;SDS011;40088;51.214;6.786;2023-07-31T09:37:58;5.75;;;3.55;;
26838;SDS011;40088;51.214;6.786;2023-07-31T09:48:03;6.22;;;4.03;;
26838;SDS011;40088;51.214;6.786;2023-07-31T09:58:07;5.95;;;3.90;;
26838;SDS011;40088;51.214;6.786;2023-07-31T10:08:09;5.60;;;3.80;;
26838;SDS011;40088;51.214;6.786;2023-07-31T10:18:13;6.85;;;4.22;;
26838;SDS011;40088;51.214;6.786;2023-07-31T10:28:15;7.38;;;4.63;;
26838;SDS011;40088;51.214;6.786;2023-07-31T10:38:16;5.35;;;3.72;;
26838;SDS011;40088;51.214;6.786;2023-07-31T10:48:16;5.57;;;3.67;;
26838;SDS011;40088;51.214;6.786;2023-07-31T10:58:18;6.43;;;3.73;;
26838;SDS011;40088;51.214;6.786;2023-07-31T11:08:24;4.90;;;3.40;;
26838;SDS011;40088;51.214;6.786;2023-07-31T11:18:25;5.90;;;4.10;;
26838;SDS011;40088;51.214;6.786;2023-07-31T11:28:30;4.88;;;3.60;;
26838;SDS011;40088;51.214;6.786;2023-07-31T11:38:33;5.40;;;3.47;;
26838;SDS011;40088;51.214;6.786;2023-07-31T11:48:34;4.32;;;3.10;;
26838;SDS011;40088;51.214;6.786;2023-07-31T11:58:36;4.57;;;3.75;;
26838;SDS011;40088;51.214;6.786;2023-07-31T12:08:37;5.28;;;3.17;;
26838;SDS011;40088;51.214;6.786;2023-07-31T12:18:37;3.88;;;3.05;;
26838;SDS011;40088;51.214;6.786;2023-07-31T12:28:42;2.50;;;2.30;;
26838;SDS011;40088;51.214;6.786;2023-07-31T12:38:43;3.35;;;2.40;;
26838;SDS011;40088;51.214;6.786;2023-07-31T12:48:43;3.55;;;2.63;;
26838;SDS011;40088;51.214;6.786;2023-07-31T12:58:44;5.05;;;2.67;;
26838;SDS011;40088;51.214;6.786;2023-07-31T13:08:44;3.85;;;2.90;;
26838;SDS011;40088;51.214;6.786;2023-07-31T13:18:44;3.97;;;3.00;;
26838;SDS011;40088;51.214;6.786;2023-07-31T13:28:44;6.43;;;3.28;;
26838;SDS011;40088;51.214;6.786;2023-07-31T13:38:45;2.90;;;2.60;;
26838;SDS011;40088;51.214;6.786;2023-07-31T13:48:45;4.03;;;2.92;;
26838;SDS011;40088;51.214;6.786;2023-07-31T13:58:45;5.35;;;3.03;;
26838;SDS011;40088;51.214;6.786;2023-07-31T14:08:46;4.18;;;2.97;;
26838;SDS011;40088;51.214;6.786;2023-07-31T14:18:46;3.63;;;2.80;;
26838;SDS011;40088;51.214;6.786;2023-07-31T14:28:46;5.22;;;3.40;;
26838;SDS011;40088;51.214;6.786;2023-07-31T14:38:47;4.28;;;3.03;;
26838;SDS011;40088;51.214;6.786;2023-07-31T14:48:47;4.55;;;3.30;;
26838;SDS011;40088;51.214;6.786;2023-07-31T14:58:47;4.95;;;3.05;;
26838;SDS011;40088;51.214;6.786;2023-07-31T15:08:47;4.60;;;2.88;;
26838;SDS011;40088;51.214;6.786;2023-07-31T15:18:48;4.60;;;3.13;;
26838;SDS011;40088;51.214;6.786;2023-07-31T15:28:55;4.78;;;3.47;;
26838;SDS011;40088;51.214;6.786;2023-07-31T15:39:00;4.32;;;3.67;;
26838;SDS011;40088;51.214;6.786;2023-07-31T15:49:00;5.13;;;3.83;;
26838;SDS011;40088;51.214;6.786;2023-07-31T15:59:01;5.22;;;3.80;;
26838;SDS011;40088;51.214;6.786;2023-07-31T16:09:01;6.40;;;4.10;;
26838;SDS011;40088;51.214;6.786;2023-07-31T16:19:02;5.30;;;3.78;;
26838;SDS011;40088;51.214;6.786;2023-07-31T16:29:02;4.93;;;3.97;;
26838;SDS011;40088;51.214;6.786;2023-07-31T16:39:02;4.47;;;3.35;;
26838;SDS011;40088;51.214;6.786;2023-07-31T16:49:02;6.75;;;4.22;;
26838;SDS011;40088;51.214;6.786;2023-07-31T16:59:03;6.55;;;4.07;;
26838;SDS011;40088;51.214;6.786;2023-07-31T17:09:04;4.35;;;3.50;;
26838;SDS011;40088;51.214;6.786;2023-07-31T17:19:04;6.40;;;4.95;;
26838;SDS011;40088;51.214;6.786;2023-07-31T17:29:04;5.30;;;4.25;;
26838;SDS011;40088;51.214;6.786;2023-07-31T17:39:05;6.28;;;4.53;;
26838;SDS011;40088;51.214;6.786;2023-07-31T17:49:05;5.75;;;4.22;;
26838;SDS011;40088;51.214;6.786;2023-07-31T17:59:05;7.50;;;5.00;;
26838;SDS011;40088;51.214;6.786;2023-07-31T18:09:08;5.60;;;3.83;;
26838;SDS011;40088;51.214;6.786;2023-07-31T18:19:08;5.77;;;4.37;;
26838;SDS011;40088;51.214;6.786;2023-07-31T18:29:09;5.65;;;4.00;;
26838;SDS011;40088;51.214;6.786;2023-07-31T18:39:09;6.00;;;4.07;;
26838;SDS011;40088;51.214;6.786;2023-07-31T18:49:09;5.95;;;4.22;;
26838;SDS011;40088;51.214;6.786;2023-07-31T18:59:10;6.72;;;3.90;;
26838;SDS011;40088;51.214;6.786;2023-07-31T19:09:10;6.93;;;4.85;;
26838;SDS011;40088;51.214;6.786;2023-07-31T19:19:12;6.78;;;4.35;;
26838;SDS011;40088;51.214;6.786;2023-07-31T19:29:13;5.85;;;4.25;;
26838;SDS011;40088;51.214;6.786;2023-07-31T19:39:14;7.18;;;4.22;;
26838;SDS011;40088;51.214;6.786;2023-07-31T19:49:14;7.13;;;4.55;;
26838;SDS011;40088;51.214;6.786;2023-07-31T19:59:14;6.80;;;4.43;;
26838;SDS011;40088;51.214;6.786;2023-07-31T20:09:15;6.32;;;4.45;;
26838;SDS011;40088;51.214;6.786;2023-07-31T20:19:15;6.03;;;4.13;;
26838;SDS011;40088;51.214;6.786;2023-07-31T20:29:16;5.03;;;3.50;;
26838;SDS011;40088;51.214;6.786;2023-07-31T20:39:16;5.50;;;3.85;;
26838;SDS011;40088;51.214;6.786;2023-07-31T20:49:16;6.00;;;4.00;;
26838;SDS011;40088;51.214;6.786;2023-07-31T20:59:17;5.53;;;3.60;;
26838;SDS011;40088;51.214;6.786;2023-07-31T21:09:18;6.55;;;4.50;;
26838;SDS011;40088;51.214;6.786;2023-07-31T21:19:18;5.63;;;4.00;;
26838;SDS011;40088;51.214;6.786;2023-07-31T21:29:18;4.97;;;4.05;;
26838;SDS011;40088;51.214;6.786;2023-07-31T21:39:19;6.30;;;4.40;;
26838;SDS011;40088;51.214;6.786;2023-07-31T21:49:20;7.47;;;5.43;;
26838;SDS011;40088;51.214;6.786;2023-07-31T21:59:20;5.93;;;4.38;;
26838;SDS011;40088;51.214;6.786;2023-07-31T22:09:20;5.20;;;3.65;;
26838;SDS011;40088;51.214;6.786;2023-07-31T22:19:21;5.03;;;3.53;;
26838;SDS011;40088;51.214;6.786;2023-07-31T22:29:21;5.17;;;3.33;;
26838;SDS011;40088;51.214;6.786;2023-07-31T22:39:24;5.73;;;3.37;;
26838;SDS011;40088;51.214;6.786;2023-07-31T22:49:24;6.15;;;3.25;;
26838;SDS011;40088;51.214;6.786;2023-07-31T22:59:24;4.05;;;2.70;;
26838;SDS011;40088;51.214;6.786;2023-07-31T23:09:25;5.10;;;3.38;;
26838;SDS011;40088;51.214;6.786;2023-07-31T23:19:25;6.13;;;3.85;;
26838;SDS011;40088;51.214;6.786;2023-07-31T23:29:25;6.90;;;4.32;;
26838;SDS011;40088;51.214;6.786;2023-07-31T23:39:26;5.07;;;3.90;;
26838;SDS011;40088;51.214;6.786;2023-07-31T23:49:26;3.78;;;2.75;;
26838;SDS011;40088;51.214;6.786;2023-07-31T23:59:26;6.68;;;4.20;;
